Time;durP1;ratioP1;P1;durP2;ratioP2;P2;SDS_P1;SDS_P2;PMS_P1;PMS_P2;Temp;Humidity;BMP_temperature;BMP_pressure;BME280_temperature;BME280_humidity;BME280_pressure;Samples;Min_cycle;Max_cycle;Signal;HPM_P1;HPM_P2
2021/08/19 00:01:22;;;;;;;6.68;2.00;;;;;;;;;;5015108;28;20042;-56
2021/08/19 00:03:48;;;;;;;4.38;1.80;;;;;;;;;;5017613;28;20040;-56
2021/08/19 00:06:14;;;;;;;6.05;1.70;;;;;;;;;;5018784;28;20092;-56
2021/08/19 00:08:40;;;;;;;4.03;1.70;;;;;;;;;;5020775;28;20052;-54
2021/08/19 00:11:06;;;;;;;3.92;1.42;;;;;;;;;;5021943;28;20033;-54
2021/08/19 00:13:32;;;;;;;6.03;1.45;;;;;;;;;;5020446;28;20052;-55
2021/08/19 00:15:58;;;;;;;5.82;2.08;;;;;;;;;;5020933;28;20044;-54
2021/08/19 00:18:24;;;;;;;5.00;1.77;;;;;;;;;;5018852;28;20227;-56
2021/08/19 00:20:50;;;;;;;4.20;1.70;;;;;;;;;;5018314;28;20052;-55
2021/08/19 00:23:16;;;;;;;4.45;1.88;;;;;;;;;;5018052;28;20041;-56
2021/08/19 00:25:42;;;;;;;4.75;1.70;;;;;;;;;;5018796;28;20442;-55
2021/08/19 00:28:08;;;;;;;4.80;1.65;;;;;;;;;;5018336;28;21224;-54
2021/08/19 00:30:33;;;;;;;5.88;1.70;;;;;;;;;;5019456;28;20033;-56
2021/08/19 00:32:59;;;;;;;8.35;2.03;;;;;;;;;;5019193;28;20092;-52
2021/08/19 00:35:25;;;;;;;4.28;1.65;;;;;;;;;;5019096;28;20049;-55
2021/08/19 00:37:51;;;;;;;4.65;1.60;;;;;;;;;;5018184;28;20095;-56
2021/08/19 00:40:17;;;;;;;4.25;1.48;;;;;;;;;;5018259;28;20040;-55
2021/08/19 00:42:42;;;;;;;4.68;1.50;;;;;;;;;;5003183;28;20053;-53
2021/08/19 00:45:09;;;;;;;4.25;1.60;;;;;;;;;;5004810;28;20096;-55
2021/08/19 00:47:37;;;;;;;4.43;1.30;;;;;;;;;;4999402;28;20125;-56
2021/08/19 00:50:03;;;;;;;4.30;1.42;;;;;;;;;;5005062;28;20500;-54
2021/08/19 00:52:30;;;;;;;4.50;1.95;;;;;;;;;;5008774;28;20042;-54
2021/08/19 00:54:55;;;;;;;4.95;1.70;;;;;;;;;;5011478;28;20046;-55
2021/08/19 00:57:21;;;;;;;6.38;1.60;;;;;;;;;;5011718;28;20033;-51
2021/08/19 00:59:47;;;;;;;4.18;1.60;;;;;;;;;;5016905;28;20041;-55
2021/08/19 01:02:13;;;;;;;3.97;1.40;;;;;;;;;;5018602;28;20049;-55
2021/08/19 01:04:43;;;;;;;3.83;1.30;;;;;;;;;;5019110;28;20095;-55
2021/08/19 01:07:08;;;;;;;5.45;1.80;;;;;;;;;;5018973;28;20071;-55
2021/08/19 01:09:34;;;;;;;4.82;1.52;;;;;;;;;;5017819;28;20045;-55
2021/08/19 01:12:01;;;;;;;4.70;1.67;;;;;;;;;;5016608;28;20038;-53
2021/08/19 01:14:27;;;;;;;4.35;1.40;;;;;;;;;;4973765;28;20423;-56
2021/08/19 01:16:52;;;;;;;5.28;1.70;;;;;;;;;;5006625;28;20075;-55
2021/08/19 01:19:20;;;;;;;7.78;1.73;;;;;;;;;;5016249;28;20572;-56
2021/08/19 01:21:47;;;;;;;4.78;1.60;;;;;;;;;;5017985;28;20053;-56
2021/08/19 01:24:13;;;;;;;5.65;1.52;;;;;;;;;;5018905;28;20042;-56
2021/08/19 01:26:40;;;;;;;4.43;1.35;;;;;;;;;;5016840;28;20619;-56
2021/08/19 01:29:06;;;;;;;4.57;1.85;;;;;;;;;;5012584;28;20045;-56
2021/08/19 01:31:32;;;;;;;5.15;1.40;;;;;;;;;;5014536;28;20149;-53
2021/08/19 01:33:59;;;;;;;4.05;1.38;;;;;;;;;;5016395;28;21074;-55
2021/08/19 01:36:25;;;;;;;4.07;1.30;;;;;;;;;;5015152;28;20152;-55
2021/08/19 01:38:51;;;;;;;5.53;1.73;;;;;;;;;;5016414;28;20045;-56
2021/08/19 01:41:17;;;;;;;3.67;1.38;;;;;;;;;;5014963;28;20037;-52
2021/08/19 01:43:44;;;;;;;4.85;1.42;;;;;;;;;;5016699;28;20587;-56
2021/08/19 01:46:11;;;;;;;7.20;1.65;;;;;;;;;;5004228;28;20113;-55
2021/08/19 01:48:40;;;;;;;4.03;1.48;;;;;;;;;;5004370;28;20038;-56
2021/08/19 01:51:06;;;;;;;4.68;1.50;;;;;;;;;;5011370;28;20046;-56
2021/08/19 01:53:32;;;;;;;4.10;1.70;;;;;;;;;;5014541;28;20052;-55
2021/08/19 01:55:58;;;;;;;4.40;1.63;;;;;;;;;;5010045;28;20069;-55
2021/08/19 01:58:25;;;;;;;8.77;1.73;;;;;;;;;;4992852;28;20045;-55
2021/08/19 02:00:51;;;;;;;6.47;1.90;;;;;;;;;;4990995;28;20041;-55
2021/08/19 02:03:16;;;;;;;5.50;1.77;;;;;;;;;;5002721;28;20458;-56
2021/08/19 02:05:43;;;;;;;5.28;1.65;;;;;;;;;;5002170;28;20049;-55
2021/08/19 02:08:09;;;;;;;5.65;1.80;;;;;;;;;;4997424;28;20033;-56
2021/08/19 02:10:36;;;;;;;4.40;1.75;;;;;;;;;;4996418;28;20528;-54
2021/08/19 02:13:02;;;;;;;4.22;1.70;;;;;;;;;;4994346;28;20038;-55
2021/08/19 02:15:28;;;;;;;7.85;1.70;;;;;;;;;;4997916;28;20038;-55
2021/08/19 02:17:54;;;;;;;4.55;1.70;;;;;;;;;;4990913;28;20883;-57
2021/08/19 02:20:20;;;;;;;6.60;1.50;;;;;;;;;;4988265;28;20054;-55
2021/08/19 02:22:48;;;;;;;11.07;2.20;;;;;;;;;;4985507;28;20061;-55
2021/08/19 02:25:14;;;;;;;8.18;1.58;;;;;;;;;;4986919;28;20042;-56
2021/08/19 02:27:40;;;;;;;4.80;1.83;;;;;;;;;;4988530;28;20047;-54
2021/08/19 02:30:07;;;;;;;5.45;2.10;;;;;;;;;;5012541;28;20034;-55
2021/08/19 02:32:32;;;;;;;4.53;2.03;;;;;;;;;;5013501;28;20053;-53
2021/08/19 02:34:58;;;;;;;4.30;1.60;;;;;;;;;;5014239;28;20046;-53
2021/08/19 02:37:25;;;;;;;4.25;1.70;;;;;;;;;;5011752;28;20502;-55
2021/08/19 02:39:50;;;;;;;4.70;1.70;;;;;;;;;;5016185;28;20052;-55
2021/08/19 02:42:16;;;;;;;6.25;1.85;;;;;;;;;;5012980;28;20041;-54
2021/08/19 02:44:42;;;;;;;4.35;1.63;;;;;;;;;;5014667;28;20453;-53
2021/08/19 02:47:08;;;;;;;4.60;1.90;;;;;;;;;;5016139;28;20041;-55
2021/08/19 02:49:34;;;;;;;4.85;2.00;;;;;;;;;;5016113;28;20059;-54
2021/08/19 02:52:00;;;;;;;6.45;2.25;;;;;;;;;;5015975;28;20123;-55
2021/08/19 02:54:26;;;;;;;4.97;1.88;;;;;;;;;;5015543;28;20532;-54
2021/08/19 02:56:51;;;;;;;4.82;1.77;;;;;;;;;;5013295;28;20046;-56
2021/08/19 02:59:17;;;;;;;5.72;2.88;;;;;;;;;;5014921;28;20041;-53
2021/08/19 03:01:43;;;;;;;5.15;2.03;;;;;;;;;;5014729;28;20120;-55
2021/08/19 03:04:09;;;;;;;4.72;2.05;;;;;;;;;;5016470;28;22187;-55
2021/08/19 03:06:34;;;;;;;5.28;1.77;;;;;;;;;;5014151;28;20132;-55
2021/08/19 03:09:00;;;;;;;4.45;2.00;;;;;;;;;;5014428;28;20068;-53
2021/08/19 03:11:26;;;;;;;7.18;2.10;;;;;;;;;;5015727;28;20125;-55
2021/08/19 03:13:53;;;;;;;7.80;2.03;;;;;;;;;;5015448;28;20042;-53
2021/08/19 03:16:19;;;;;;;7.10;2.25;;;;;;;;;;5014035;28;20462;-54
2021/08/19 03:18:45;;;;;;;6.10;1.95;;;;;;;;;;5014001;28;20151;-56
2021/08/19 03:21:11;;;;;;;5.18;2.33;;;;;;;;;;5014828;28;20045;-54
2021/08/19 03:23:36;;;;;;;5.95;1.88;;;;;;;;;;5014644;28;20055;-54
2021/08/19 03:26:05;;;;;;;9.80;2.25;;;;;;;;;;5016134;28;20045;-55
2021/08/19 03:28:31;;;;;;;7.75;2.10;;;;;;;;;;5015085;28;20044;-55
2021/08/19 03:30:58;;;;;;;4.88;2.35;;;;;;;;;;5016330;28;20491;-53
2021/08/19 03:33:24;;;;;;;5.63;2.03;;;;;;;;;;5015052;28;20042;-55
2021/08/19 03:35:50;;;;;;;5.47;2.08;;;;;;;;;;5015929;28;20045;-54
2021/08/19 03:38:16;;;;;;;6.65;2.03;;;;;;;;;;5014898;28;20033;-55
2021/08/19 03:40:42;;;;;;;5.07;2.00;;;;;;;;;;5013724;28;20069;-55
2021/08/19 03:43:08;;;;;;;7.35;2.08;;;;;;;;;;5015050;28;20134;-55
2021/08/19 03:45:33;;;;;;;5.35;2.05;;;;;;;;;;5015998;28;20700;-55
2021/08/19 03:47:59;;;;;;;5.88;2.13;;;;;;;;;;5014525;28;20069;-53
2021/08/19 03:50:25;;;;;;;6.28;2.38;;;;;;;;;;5012991;28;20361;-56
2021/08/19 03:52:51;;;;;;;5.22;2.08;;;;;;;;;;5016132;28;20051;-54
2021/08/19 03:55:17;;;;;;;5.47;2.30;;;;;;;;;;5014093;28;20643;-53
2021/08/19 03:57:43;;;;;;;6.95;2.05;;;;;;;;;;4989304;28;20502;-56
2021/08/19 04:00:09;;;;;;;4.47;2.20;;;;;;;;;;4997085;28;20088;-54
2021/08/19 04:02:35;;;;;;;8.38;4.25;;;;;;;;;;4989706;28;20043;-53
2021/08/19 04:05:01;;;;;;;6.07;2.60;;;;;;;;;;4998188;28;20044;-55
2021/08/19 04:07:27;;;;;;;4.40;2.13;;;;;;;;;;5001680;28;20049;-55
2021/08/19 04:09:53;;;;;;;6.97;2.30;;;;;;;;;;4987835;28;20043;-53
2021/08/19 04:12:18;;;;;;;5.13;2.10;;;;;;;;;;4987242;28;21929;-54
2021/08/19 04:14:44;;;;;;;5.15;2.13;;;;;;;;;;4992838;28;20046;-53
2021/08/19 04:17:10;;;;;;;4.97;2.10;;;;;;;;;;5016129;28;20415;-55
2021/08/19 04:19:36;;;;;;;4.90;2.00;;;;;;;;;;5014738;28;20034;-52
2021/08/19 04:22:02;;;;;;;5.78;2.13;;;;;;;;;;5015114;28;20095;-54
2021/08/19 04:24:28;;;;;;;4.75;2.28;;;;;;;;;;5014420;28;20037;-52
2021/08/19 04:26:54;;;;;;;4.97;1.90;;;;;;;;;;5016318;28;20029;-54
2021/08/19 04:29:20;;;;;;;5.43;1.90;;;;;;;;;;5015791;28;20066;-52
2021/08/19 04:31:45;;;;;;;4.80;1.90;;;;;;;;;;5014770;28;20041;-52
2021/08/19 04:34:11;;;;;;;7.15;2.33;;;;;;;;;;5016131;28;20128;-53
2021/08/19 04:36:37;;;;;;;6.30;2.03;;;;;;;;;;5017465;28;20370;-52
2021/08/19 04:39:03;;;;;;;8.25;2.40;;;;;;;;;;5014274;28;20053;-54
2021/08/19 04:41:30;;;;;;;5.85;2.10;;;;;;;;;;5016271;28;20033;-54
2021/08/19 04:43:55;;;;;;;6.20;2.10;;;;;;;;;;5016953;28;20053;-54
2021/08/19 04:46:21;;;;;;;5.72;1.98;;;;;;;;;;5017699;28;20029;-52
2021/08/19 04:48:47;;;;;;;5.95;2.30;;;;;;;;;;5016928;28;20033;-55
2021/08/19 04:51:13;;;;;;;5.40;2.28;;;;;;;;;;5016427;28;20045;-54
2021/08/19 04:53:38;;;;;;;5.97;2.42;;;;;;;;;;5020448;28;20690;-53
2021/08/19 04:56:04;;;;;;;5.65;2.47;;;;;;;;;;5018978;28;20036;-52
2021/08/19 04:58:30;;;;;;;9.15;2.33;;;;;;;;;;5018222;28;20041;-54
2021/08/19 05:00:56;;;;;;;5.10;2.20;;;;;;;;;;5017199;28;20168;-54
2021/08/19 05:03:22;;;;;;;7.57;2.70;;;;;;;;;;5018762;28;20058;-53
2021/08/19 05:05:48;;;;;;;4.97;2.20;;;;;;;;;;5018280;28;20044;-54
2021/08/19 05:08:13;;;;;;;7.35;2.60;;;;;;;;;;5018179;28;20049;-54
2021/08/19 05:10:39;;;;;;;6.57;2.22;;;;;;;;;;5018287;28;20038;-53
2021/08/19 05:13:05;;;;;;;4.93;2.10;;;;;;;;;;5018487;28;20037;-54
2021/08/19 05:15:31;;;;;;;9.32;2.40;;;;;;;;;;5017946;28;20694;-53
2021/08/19 05:17:57;;;;;;;5.30;2.25;;;;;;;;;;5017333;28;20049;-54
2021/08/19 05:20:23;;;;;;;4.88;1.95;;;;;;;;;;5017912;28;20059;-54
2021/08/19 05:22:49;;;;;;;5.72;2.10;;;;;;;;;;5018318;28;20847;-54
2021/08/19 05:25:14;;;;;;;6.85;2.35;;;;;;;;;;5019933;28;20041;-54
2021/08/19 05:27:40;;;;;;;7.00;2.40;;;;;;;;;;5015989;28;20041;-54
2021/08/19 05:30:07;;;;;;;8.10;2.65;;;;;;;;;;5018442;28;20038;-54
2021/08/19 05:32:32;;;;;;;5.65;2.53;;;;;;;;;;5018871;28;20042;-54
2021/08/19 05:35:02;;;;;;;10.15;2.33;;;;;;;;;;5019479;28;20030;-53
2021/08/19 05:37:27;;;;;;;5.03;2.22;;;;;;;;;;5018351;28;20037;-54
2021/08/19 05:39:53;;;;;;;5.90;2.35;;;;;;;;;;5020048;28;20126;-51
2021/08/19 05:42:19;;;;;;;7.93;2.70;;;;;;;;;;5018459;28;20076;-53
2021/08/19 05:44:45;;;;;;;5.60;2.65;;;;;;;;;;5019904;28;20095;-51
2021/08/19 05:47:11;;;;;;;9.45;2.38;;;;;;;;;;5019971;28;20029;-52
2021/08/19 05:49:44;;;;;;;8.55;2.63;;;;;;;;;;5019695;28;20026;-51
2021/08/19 05:52:11;;;;;;;;;;;;;;;;;;5022143;28;20072;-51
2021/08/19 05:54:37;;;;;;;7.47;2.70;;;;;;;;;;5018801;28;19976;-54
2021/08/19 05:57:03;;;;;;;6.00;2.70;;;;;;;;;;5016868;28;20113;-54
2021/08/19 05:59:29;;;;;;;7.40;2.63;;;;;;;;;;5017537;28;20259;-53
2021/08/19 06:01:55;;;;;;;4.65;2.38;;;;;;;;;;5017362;28;20049;-53
2021/08/19 06:04:21;;;;;;;6.43;2.63;;;;;;;;;;5018818;28;20048;-53
2021/08/19 06:06:46;;;;;;;4.90;2.47;;;;;;;;;;5018459;28;20453;-53
2021/08/19 06:09:13;;;;;;;7.20;2.35;;;;;;;;;;5018823;28;20060;-53
2021/08/19 06:11:39;;;;;;;6.07;2.88;;;;;;;;;;5016995;28;20044;-53
2021/08/19 06:14:05;;;;;;;7.57;2.88;;;;;;;;;;5018891;28;20068;-53
2021/08/19 06:16:31;;;;;;;6.82;2.80;;;;;;;;;;5015597;28;20056;-52
2021/08/19 06:18:57;;;;;;;9.13;2.50;;;;;;;;;;5017827;28;20033;-53
2021/08/19 06:21:23;;;;;;;5.45;2.97;;;;;;;;;;5017394;28;20038;-53
2021/08/19 06:23:49;;;;;;;7.15;3.13;;;;;;;;;;5017433;28;20060;-53
2021/08/19 06:26:15;;;;;;;8.00;2.58;;;;;;;;;;5015993;28;20083;-52
2021/08/19 06:28:41;;;;;;;9.88;3.20;;;;;;;;;;5015809;28;20049;-53
2021/08/19 06:31:07;;;;;;;6.32;2.85;;;;;;;;;;5018103;28;20112;-53
2021/08/19 06:33:33;;;;;;;7.20;3.08;;;;;;;;;;5015574;28;20053;-53
2021/08/19 06:35:59;;;;;;;6.90;3.03;;;;;;;;;;5017501;28;20068;-53
2021/08/19 06:38:24;;;;;;;6.35;2.92;;;;;;;;;;5016323;28;20037;-52
2021/08/19 06:40:50;;;;;;;5.60;2.70;;;;;;;;;;5018349;28;20703;-52
2021/08/19 06:43:16;;;;;;;5.88;2.85;;;;;;;;;;5017216;28;20052;-52
2021/08/19 06:45:42;;;;;;;6.10;2.72;;;;;;;;;;4996210;28;20037;-51
2021/08/19 06:48:08;;;;;;;10.07;3.28;;;;;;;;;;4999358;28;20042;-54
2021/08/19 06:50:34;;;;;;;6.15;2.97;;;;;;;;;;5000555;28;20068;-54
2021/08/19 06:52:59;;;;;;;7.50;3.38;;;;;;;;;;4992886;28;20133;-55
2021/08/19 06:55:27;;;;;;;7.85;3.17;;;;;;;;;;5012204;28;20499;-53
2021/08/19 06:57:53;;;;;;;6.05;3.08;;;;;;;;;;4996319;28;20080;-53
2021/08/19 07:00:19;;;;;;;7.43;3.05;;;;;;;;;;4996341;28;20042;-53
2021/08/19 07:02:45;;;;;;;7.05;2.88;;;;;;;;;;4994984;28;20058;-53
2021/08/19 07:05:11;;;;;;;6.50;2.60;;;;;;;;;;5005486;28;20088;-53
2021/08/19 07:07:37;;;;;;;6.85;3.17;;;;;;;;;;4997157;28;20126;-53
2021/08/19 07:10:03;;;;;;;12.13;3.17;;;;;;;;;;4995471;28;20693;-53
2021/08/19 07:12:29;;;;;;;8.65;3.78;;;;;;;;;;4990016;28;20499;-53
2021/08/19 07:14:55;;;;;;;7.57;3.55;;;;;;;;;;4991825;28;20041;-53
2021/08/19 07:17:21;;;;;;;9.68;3.40;;;;;;;;;;5001377;28;20042;-50
2021/08/19 07:19:46;;;;;;;7.35;3.63;;;;;;;;;;4988173;28;20133;-53
2021/08/19 07:22:12;;;;;;;6.47;2.78;;;;;;;;;;4988404;28;20054;-53
2021/08/19 07:24:38;;;;;;;5.65;3.20;;;;;;;;;;4987423;28;20088;-54
2021/08/19 07:27:04;;;;;;;6.32;3.45;;;;;;;;;;4986595;28;20408;-53
2021/08/19 07:29:30;;;;;;;7.07;3.10;;;;;;;;;;4987074;28;20512;-54
2021/08/19 07:31:56;;;;;;;7.70;3.63;;;;;;;;;;4987684;28;20034;-54
2021/08/19 07:34:22;;;;;;;6.07;3.22;;;;;;;;;;4987311;28;20121;-53
2021/08/19 07:36:47;;;;;;;15.43;3.67;;;;;;;;;;4987486;28;20569;-52
2021/08/19 07:39:15;;;;;;;7.40;3.50;;;;;;;;;;4987339;28;20101;-54
2021/08/19 07:41:41;;;;;;;6.47;3.63;;;;;;;;;;4986663;28;20049;-53
2021/08/19 07:44:07;;;;;;;10.20;3.65;;;;;;;;;;4987949;28;20047;-51
2021/08/19 07:46:33;;;;;;;7.93;4.00;;;;;;;;;;5003125;28;20068;-54
2021/08/19 07:49:01;;;;;;;7.32;3.17;;;;;;;;;;4997410;28;20069;-53
2021/08/19 07:51:27;;;;;;;11.82;4.03;;;;;;;;;;4994034;28;20131;-52
2021/08/19 07:53:53;;;;;;;7.43;3.20;;;;;;;;;;4994233;28;20407;-53
2021/08/19 07:56:19;;;;;;;7.53;3.50;;;;;;;;;;4999498;28;20043;-53
2021/08/19 07:58:45;;;;;;;7.15;3.58;;;;;;;;;;4987284;28;20054;-51
2021/08/19 08:01:10;;;;;;;7.65;3.90;;;;;;;;;;4988048;28;20439;-53
2021/08/19 08:03:36;;;;;;;8.93;4.03;;;;;;;;;;4986216;28;20050;-54
2021/08/19 08:06:02;;;;;;;8.85;3.92;;;;;;;;;;5008140;28;20390;-52
2021/08/19 08:08:28;;;;;;;8.40;4.18;;;;;;;;;;5015158;28;20794;-54
2021/08/19 08:10:54;;;;;;;8.32;4.30;;;;;;;;;;5015652;28;20064;-52
2021/08/19 08:13:19;;;;;;;9.10;4.38;;;;;;;;;;5013837;28;20054;-54
2021/08/19 08:15:45;;;;;;;8.00;4.22;;;;;;;;;;5014753;28;20643;-55
2021/08/19 08:18:13;;;;;;;11.70;4.18;;;;;;;;;;5016379;28;20824;-53
2021/08/19 08:20:39;;;;;;;8.15;3.97;;;;;;;;;;5014741;28;20134;-53
2021/08/19 08:23:05;;;;;;;8.80;4.20;;;;;;;;;;5016521;28;20060;-53
2021/08/19 08:25:31;;;;;;;7.95;4.22;;;;;;;;;;5014746;28;20079;-54
2021/08/19 08:28:05;;;;;;;9.57;4.25;;;;;;;;;;5019020;28;20045;-51
2021/08/19 08:30:31;;;;;;;7.43;4.07;;;;;;;;;;5019319;28;20033;-54
2021/08/19 08:32:57;;;;;;;9.32;4.45;;;;;;;;;;5019433;28;20434;-54
2021/08/19 08:35:23;;;;;;;11.15;4.40;;;;;;;;;;5019086;28;20043;-55
2021/08/19 08:37:49;;;;;;;10.35;4.50;;;;;;;;;;5019497;28;20064;-53
2021/08/19 08:40:16;;;;;;;9.23;4.30;;;;;;;;;;5019828;28;20158;-53
2021/08/19 08:42:42;;;;;;;13.43;4.40;;;;;;;;;;5019245;28;22326;-54
2021/08/19 08:45:08;;;;;;;10.43;4.50;;;;;;;;;;5019377;28;20513;-51
2021/08/19 08:47:34;;;;;;;11.98;4.22;;;;;;;;;;5019257;28;20038;-51
2021/08/19 08:50:01;;;;;;;9.43;4.10;;;;;;;;;;5020346;28;20045;-53
2021/08/19 08:52:28;;;;;;;11.13;4.88;;;;;;;;;;5019017;28;20036;-51
2021/08/19 08:54:55;;;;;;;8.93;4.53;;;;;;;;;;5021322;28;20037;-52
2021/08/19 08:57:22;;;;;;;10.93;4.55;;;;;;;;;;5019027;28;20548;-52
2021/08/19 08:59:48;;;;;;;8.32;4.60;;;;;;;;;;5018697;28;20116;-53
2021/08/19 09:02:14;;;;;;;8.63;4.57;;;;;;;;;;5020958;28;20051;-54
2021/08/19 09:04:39;;;;;;;9.73;4.07;;;;;;;;;;5020481;28;20144;-51
2021/08/19 09:07:05;;;;;;;11.05;4.38;;;;;;;;;;5019663;28;20073;-54
2021/08/19 09:09:32;;;;;;;10.88;4.75;;;;;;;;;;5019370;28;20037;-54
2021/08/19 09:12:02;;;;;;;10.45;4.90;;;;;;;;;;5018160;28;20033;-52
2021/08/19 09:14:29;;;;;;;9.80;4.57;;;;;;;;;;5016464;28;20462;-53
2021/08/19 09:16:55;;;;;;;9.75;5.10;;;;;;;;;;5017752;28;20046;-51
2021/08/19 09:19:22;;;;;;;9.48;4.95;;;;;;;;;;5017389;28;20502;-55
2021/08/19 09:21:58;;;;;;;9.98;5.25;;;;;;;;;;5018233;28;20045;-52
2021/08/19 09:24:25;;;;;;;9.98;5.22;;;;;;;;;;5017377;28;20508;-52
2021/08/19 09:26:51;;;;;;;11.82;5.57;;;;;;;;;;5017701;28;20057;-55
2021/08/19 09:29:17;;;;;;;9.73;5.28;;;;;;;;;;5017998;28;20044;-53
2021/08/19 09:31:43;;;;;;;10.80;4.65;;;;;;;;;;5000657;28;20038;-55
2021/08/19 09:34:09;;;;;;;9.68;5.43;;;;;;;;;;5018105;28;20068;-51
2021/08/19 09:36:35;;;;;;;9.93;5.53;;;;;;;;;;5017406;28;20029;-52
2021/08/19 09:39:03;;;;;;;10.40;5.32;;;;;;;;;;5018158;28;20041;-52
2021/08/19 09:41:29;;;;;;;12.93;5.57;;;;;;;;;;5017313;28;20049;-52
2021/08/19 09:43:55;;;;;;;7.72;4.68;;;;;;;;;;5018511;28;20133;-53
2021/08/19 09:46:37;;;;;;;9.48;5.45;;;;;;;;;;5015901;28;20065;-54
2021/08/19 09:49:23;;;;;;;9.23;5.10;;;;;;;;;;5017981;28;20034;-51
2021/08/19 09:52:01;;;;;;;12.52;5.03;;;;;;;;;;4995920;28;20042;-52
2021/08/19 09:54:28;;;;;;;18.90;4.93;;;;;;;;;;5001616;28;20124;-54
2021/08/19 09:56:54;;;;;;;12.48;4.85;;;;;;;;;;4997020;28;20073;-54
2021/08/19 09:59:21;;;;;;;13.52;5.50;;;;;;;;;;4995262;28;20038;-54
2021/08/19 10:01:48;;;;;;;12.05;5.63;;;;;;;;;;4994689;28;20037;-54
2021/08/19 10:04:14;;;;;;;8.85;4.90;;;;;;;;;;4993275;28;20037;-54
2021/08/19 10:06:40;;;;;;;8.30;5.03;;;;;;;;;;5003869;28;20043;-54
2021/08/19 10:09:06;;;;;;;10.10;4.60;;;;;;;;;;4992481;28;20070;-55
2021/08/19 10:11:34;;;;;;;10.13;3.85;;;;;;;;;;5013117;28;20557;-55
2021/08/19 10:14:01;;;;;;;9.82;4.38;;;;;;;;;;5011582;28;20079;-51
2021/08/19 10:16:30;;;;;;;8.50;4.25;;;;;;;;;;4992835;28;20059;-55
2021/08/19 10:18:57;;;;;;;9.00;4.43;;;;;;;;;;5011024;28;20040;-55
2021/08/19 10:21:22;;;;;;;7.18;4.10;;;;;;;;;;5000961;28;20502;-54
2021/08/19 10:23:49;;;;;;;10.85;4.22;;;;;;;;;;5012912;28;20144;-54
2021/08/19 10:26:19;;;;;;;7.40;3.20;;;;;;;;;;5005717;28;20045;-53
2021/08/19 10:28:47;;;;;;;7.63;3.20;;;;;;;;;;5010000;28;20041;-54
2021/08/19 10:31:32;;;;;;;7.82;3.28;;;;;;;;;;4995718;28;20045;-52
2021/08/19 10:33:58;;;;;;;7.18;3.45;;;;;;;;;;4996915;28;20137;-55
2021/08/19 10:36:24;;;;;;;7.93;3.03;;;;;;;;;;4998478;28;20042;-55
2021/08/19 10:38:49;;;;;;;7.88;3.78;;;;;;;;;;5005686;28;20030;-53
2021/08/19 10:41:38;;;;;;;7.82;2.85;;;;;;;;;;5000161;28;20033;-54
2021/08/19 10:44:05;;;;;;;7.65;3.05;;;;;;;;;;4991379;28;20065;-55
2021/08/19 10:46:41;;;;;;;6.80;3.50;;;;;;;;;;4993893;28;20069;-53
2021/08/19 10:49:07;;;;;;;6.78;3.30;;;;;;;;;;4996963;28;20038;-54
2021/08/19 10:51:33;;;;;;;10.07;3.08;;;;;;;;;;4991447;28;20511;-51
2021/08/19 10:53:59;;;;;;;7.13;3.58;;;;;;;;;;4992087;28;20056;-53
2021/08/19 10:56:45;;;;;;;5.25;2.70;;;;;;;;;;4992543;28;20783;-54
2021/08/19 10:59:32;;;;;;;6.25;2.95;;;;;;;;;;4994389;28;20045;-53
2021/08/19 11:02:00;;;;;;;7.18;2.65;;;;;;;;;;4999404;28;20037;-54
2021/08/19 11:04:54;;;;;;;4.28;2.22;;;;;;;;;;5007112;28;20403;-55
2021/08/19 11:07:38;;;;;;;9.00;3.50;;;;;;;;;;4995240;28;20084;-53
2021/08/19 11:10:04;;;;;;;7.03;3.30;;;;;;;;;;4997718;28;20042;-54
2021/08/19 11:12:31;;;;;;;12.40;3.60;;;;;;;;;;5006997;28;20496;-55
2021/08/19 11:14:57;;;;;;;6.30;3.05;;;;;;;;;;4995511;28;20042;-52
2021/08/19 11:17:24;;;;;;;6.28;3.10;;;;;;;;;;5000712;28;20046;-54
2021/08/19 11:19:50;;;;;;;6.93;3.85;;;;;;;;;;5003707;28;20041;-55
2021/08/19 11:22:21;;;;;;;9.25;3.75;;;;;;;;;;5004106;28;20077;-54
2021/08/19 11:24:46;;;;;;;7.20;3.47;;;;;;;;;;4995978;28;20053;-54
2021/08/19 11:27:13;;;;;;;7.05;3.83;;;;;;;;;;4991551;28;20042;-54
2021/08/19 11:29:42;;;;;;;8.13;4.15;;;;;;;;;;4991510;28;20048;-54
2021/08/19 11:32:10;;;;;;;7.63;4.32;;;;;;;;;;4991997;28;20073;-54
2021/08/19 11:34:37;;;;;;;7.00;4.38;;;;;;;;;;5003486;28;20053;-54
2021/08/19 11:37:04;;;;;;;9.18;4.85;;;;;;;;;;4992078;28;20076;-53
2021/08/19 11:39:30;;;;;;;11.48;5.93;;;;;;;;;;4991827;28;20085;-54
2021/08/19 11:41:57;;;;;;;10.23;4.88;;;;;;;;;;5008291;28;20042;-54
2021/08/19 11:44:23;;;;;;;10.25;4.60;;;;;;;;;;4992623;28;20093;-54
2021/08/19 11:46:49;;;;;;;10.88;5.32;;;;;;;;;;4995288;28;20030;-51
2021/08/19 11:49:14;;;;;;;6.22;3.35;;;;;;;;;;4993472;28;20129;-54
2021/08/19 11:51:42;;;;;;;9.77;4.60;;;;;;;;;;5011577;28;20727;-54
2021/08/19 11:54:11;;;;;;;9.80;4.40;;;;;;;;;;5010616;28;20050;-55
2021/08/19 11:56:43;;;;;;;10.18;5.47;;;;;;;;;;4996742;28;20037;-52
2021/08/19 11:59:10;;;;;;;10.43;5.45;;;;;;;;;;4996821;28;20042;-53
2021/08/19 12:01:37;;;;;;;11.18;5.03;;;;;;;;;;5003760;28;20048;-54
2021/08/19 12:04:04;;;;;;;9.48;4.32;;;;;;;;;;5013109;28;20064;-54
2021/08/19 12:06:32;;;;;;;10.88;4.90;;;;;;;;;;4994945;28;20049;-55
2021/08/19 12:09:03;;;;;;;10.57;5.82;;;;;;;;;;5000293;28;20053;-54
2021/08/19 12:11:31;;;;;;;12.75;5.38;;;;;;;;;;5019328;28;20034;-53
2021/08/19 12:13:57;;;;;;;11.02;4.72;;;;;;;;;;5019767;28;22045;-54
2021/08/19 12:16:26;;;;;;;9.52;5.05;;;;;;;;;;5019425;28;20049;-56
2021/08/19 12:19:07;;;;;;;7.57;3.78;;;;;;;;;;5020047;28;20045;-53
2021/08/19 12:21:33;;;;;;;7.93;3.90;;;;;;;;;;5018017;28;20033;-54
2021/08/19 12:24:09;;;;;;;4.40;2.10;;;;;;;;;;5014398;28;20124;-55
2021/08/19 12:26:35;;;;;;;6.72;3.40;;;;;;;;;;5026781;28;20041;-53
2021/08/19 12:29:01;;;;;;;10.07;5.50;;;;;;;;;;5019234;28;20049;-55
2021/08/19 12:31:46;;;;;;;8.77;4.00;;;;;;;;;;5017611;28;21996;-54
2021/08/19 12:34:12;;;;;;;7.68;3.95;;;;;;;;;;5018338;28;20033;-53
2021/08/19 12:36:38;;;;;;;8.02;3.75;;;;;;;;;;5016280;28;20063;-51
2021/08/19 12:39:20;;;;;;;11.43;3.70;;;;;;;;;;5019218;28;20110;-57
2021/08/19 12:41:47;;;;;;;8.82;4.20;;;;;;;;;;5001239;28;20056;-54
2021/08/19 12:44:16;;;;;;;6.65;3.17;;;;;;;;;;5011352;28;20102;-52
2021/08/19 12:46:43;;;;;;;8.05;4.03;;;;;;;;;;5006260;28;20064;-54
2021/08/19 12:49:21;;;;;;;7.07;3.90;;;;;;;;;;5019105;28;20037;-54
2021/08/19 12:51:47;;;;;;;13.98;4.07;;;;;;;;;;4994987;28;20791;-54
2021/08/19 12:54:22;;;;;;;10.90;3.70;;;;;;;;;;4997701;28;20060;-53
2021/08/19 12:56:59;;;;;;;9.68;3.78;;;;;;;;;;4997791;28;20068;-52
2021/08/19 12:59:25;;;;;;;10.00;3.85;;;;;;;;;;4996866;28;20038;-53
2021/08/19 13:01:50;;;;;;;10.25;4.20;;;;;;;;;;5018238;28;20045;-57
2021/08/19 13:04:16;;;;;;;6.90;3.05;;;;;;;;;;5008035;28;20375;-55
2021/08/19 13:06:42;;;;;;;9.23;3.40;;;;;;;;;;4994619;28;20054;-56
2021/08/19 13:09:08;;;;;;;7.57;3.28;;;;;;;;;;4992392;28;20084;-53
2021/08/19 13:11:34;;;;;;;6.30;3.13;;;;;;;;;;4988638;28;20453;-55
2021/08/19 13:14:00;;;;;;;7.03;3.78;;;;;;;;;;4995886;28;20128;-56
2021/08/19 13:16:25;;;;;;;12.45;3.25;;;;;;;;;;4998185;28;20046;-56
2021/08/19 13:18:51;;;;;;;6.75;3.25;;;;;;;;;;5006577;28;20046;-54
2021/08/19 13:21:17;;;;;;;9.30;3.67;;;;;;;;;;4994087;28;20045;-52
2021/08/19 13:23:43;;;;;;;7.28;3.45;;;;;;;;;;4997825;28;20136;-51
2021/08/19 13:26:09;;;;;;;8.80;3.35;;;;;;;;;;5018625;28;21913;-53
2021/08/19 13:28:34;;;;;;;7.93;3.45;;;;;;;;;;5015328;28;20824;-54
2021/08/19 13:31:00;;;;;;;5.90;2.70;;;;;;;;;;4994915;28;20500;-55
2021/08/19 13:33:26;;;;;;;6.53;3.20;;;;;;;;;;4998334;28;20038;-54
2021/08/19 13:35:52;;;;;;;5.88;2.70;;;;;;;;;;5011696;28;20041;-55
2021/08/19 13:38:18;;;;;;;9.35;3.90;;;;;;;;;;5001634;28;20095;-52
2021/08/19 13:40:44;;;;;;;9.27;3.40;;;;;;;;;;5003815;28;20061;-55
2021/08/19 13:43:10;;;;;;;7.18;3.53;;;;;;;;;;4999785;28;20561;-55
2021/08/19 13:45:36;;;;;;;9.20;3.83;;;;;;;;;;5017605;28;20888;-57
2021/08/19 13:48:02;;;;;;;6.68;3.28;;;;;;;;;;5017766;28;20525;-55
2021/08/19 13:50:28;;;;;;;11.63;4.07;;;;;;;;;;5016384;28;20037;-56
2021/08/19 13:52:54;;;;;;;9.13;3.53;;;;;;;;;;5017781;28;20106;-57
2021/08/19 13:55:20;;;;;;;7.78;3.95;;;;;;;;;;5017407;28;20034;-55
2021/08/19 13:57:46;;;;;;;8.25;3.72;;;;;;;;;;5018318;28;20072;-54
2021/08/19 14:00:12;;;;;;;9.10;3.67;;;;;;;;;;5017644;28;20046;-54
2021/08/19 14:02:38;;;;;;;10.20;4.03;;;;;;;;;;5016669;28;22017;-54
2021/08/19 14:05:04;;;;;;;9.70;3.97;;;;;;;;;;5017244;28;20037;-55
2021/08/19 14:07:30;;;;;;;8.32;3.88;;;;;;;;;;5016486;28;20076;-51
2021/08/19 14:09:55;;;;;;;9.38;3.65;;;;;;;;;;5016894;28;20120;-54
2021/08/19 14:12:21;;;;;;;15.10;4.75;;;;;;;;;;5016398;28;20045;-53
2021/08/19 14:14:47;;;;;;;9.32;4.15;;;;;;;;;;5017564;28;20041;-53
2021/08/19 14:17:13;;;;;;;7.80;3.92;;;;;;;;;;5015872;28;20046;-53
2021/08/19 14:19:38;;;;;;;13.88;3.63;;;;;;;;;;5016010;28;20041;-54
2021/08/19 14:22:04;;;;;;;10.20;4.30;;;;;;;;;;5016731;28;20485;-54
2021/08/19 14:24:33;;;;;;;12.40;3.80;;;;;;;;;;5016894;28;20076;-53
2021/08/19 14:26:59;;;;;;;6.03;3.22;;;;;;;;;;5016526;28;20041;-54
2021/08/19 14:29:25;;;;;;;5.88;3.20;;;;;;;;;;5016378;28;20099;-52
2021/08/19 14:31:50;;;;;;;7.72;3.65;;;;;;;;;;5016159;28;20041;-54
2021/08/19 14:34:16;;;;;;;11.43;3.63;;;;;;;;;;5017155;28;20069;-53
2021/08/19 14:36:42;;;;;;;7.95;3.88;;;;;;;;;;5015687;28;20386;-51
2021/08/19 14:39:10;;;;;;;9.60;3.80;;;;;;;;;;5016719;28;20366;-54